Minton, Canada
Current Conditions -  °F | °C
As of 12:55 PM on Thursday 30 Oct 2014 (Local Time) from KD50 Reporting Station
NA  
Wind Chill: 29°   Ceiling: NA
Heat Index: 34°   Visibility: 10mi
Dew Point: 30°   Wind: 6mph
Humidity: 87%   Direction: 70°ENE
Pressure: 30.46"   Gusts: NA
Location:  49.17°N, 104.58°W
Report Text: KD50 301855Z AUTO 07005KT 10SM 01/M01 A3046 RMK AO2
Loading
Personal Weather Stations






























Interactive Weather Map New forecast layout! Learn more

10-Day Weather Forecast

Advertisements
Track Severe Weather on mobile